Time;durP1;ratioP1;P1;durP2;ratioP2;P2;SDS_P1;SDS_P2;PMS_P1;PMS_P2;Temp;Humidity;BMP_temperature;BMP_pressure;BME280_temperature;BME280_humidity;BME280_pressure;Samples;Min_cycle;Max_cycle;Signal;HPM_P1;HPM_P2
2021/04/17 00:00:14;;;;;;;5.47;2.08;;;;;;;18.04;48.42;102414.50;489328;28;814;-64
2021/04/17 00:00:29;;;;;;;4.47;2.00;;;;;;;18.04;48.64;102422.63;489278;28;862;-65
2021/04/17 00:00:43;;;;;;;4.13;2.07;;;;;;;18.04;48.41;102423.47;489254;28;815;-65
2021/04/17 00:00:58;;;;;;;3.47;2.10;;;;;;;18.04;48.77;102419.91;489292;28;945;-65
2021/04/17 00:01:13;;;;;;;3.97;2.20;;;;;;;18.04;48.34;102415.34;489062;28;940;-64
2021/04/17 00:01:29;;;;;;;4.28;2.17;;;;;;;18.02;48.41;102417.34;489234;28;985;-64
2021/04/17 00:01:45;;;;;;;3.72;2.13;;;;;;;18.03;48.10;102415.50;489225;28;905;-65
2021/04/17 00:02:00;;;;;;;3.95;2.20;;;;;;;18.04;48.32;102417.22;489199;28;917;-64
2021/04/17 00:02:19;;;;;;;5.35;2.20;;;;;;;18.04;48.11;102412.66;489191;28;913;-65
2021/04/17 00:02:34;;;;;;;5.53;2.28;;;;;;;18.03;47.95;102421.78;487630;28;41731;-64
2021/04/17 00:02:48;;;;;;;4.03;2.10;;;;;;;18.03;48.10;102424.47;489284;28;947;-64
2021/04/17 00:03:03;;;;;;;4.05;2.03;;;;;;;18.03;48.20;102418.22;489149;28;937;-65
2021/04/17 00:03:17;;;;;;;4.00;2.10;;;;;;;18.04;48.24;102422.63;488966;28;823;-65
2021/04/17 00:03:32;;;;;;;5.50;2.20;;;;;;;18.03;48.67;102421.78;489421;28;977;-65
2021/04/17 00:03:46;;;;;;;5.50;2.20;;;;;;;18.03;48.19;102421.78;489418;28;881;-65
2021/04/17 00:04:02;;;;;;;3.75;2.10;;;;;;;18.03;48.05;102418.22;489171;28;893;-65
2021/04/17 00:04:17;;;;;;;4.70;2.10;;;;;;;18.03;48.29;102421.78;489454;28;866;-65
2021/04/17 00:04:32;;;;;;;5.50;2.20;;;;;;;18.04;48.55;102417.22;489332;28;854;-65
2021/04/17 00:04:47;;;;;;;4.80;2.00;;;;;;;18.04;48.25;102414.50;489262;28;949;-65
2021/04/17 00:05:03;;;;;;;5.28;2.08;;;;;;;18.03;48.02;102421.78;489427;28;918;-64
2021/04/17 00:05:18;;;;;;;5.22;2.20;;;;;;;18.02;48.18;102411.94;489297;28;901;-64
2021/04/17 00:05:32;;;;;;;3.78;2.10;;;;;;;18.03;48.37;102416.34;488989;28;1298;-64
2021/04/17 00:05:47;;;;;;;4.07;2.10;;;;;;;18.02;48.30;102422.78;489314;28;865;-64
2021/04/17 00:06:01;;;;;;;4.35;2.10;;;;;;;18.03;48.10;102416.34;489416;28;928;-65
2021/04/17 00:06:16;;;;;;;3.70;2.17;;;;;;;18.03;48.06;102413.66;489434;28;811;-64
2021/04/17 00:06:31;;;;;;;3.58;2.20;;;;;;;18.00;48.32;102416.66;489029;28;925;-64
2021/04/17 00:06:46;;;;;;;3.58;2.13;;;;;;;18.03;48.38;102416.34;489414;28;949;-64
2021/04/17 00:07:01;;;;;;;3.85;2.00;;;;;;;18.02;48.49;102414.66;489294;28;877;-65
2021/04/17 00:07:16;;;;;;;4.00;2.00;;;;;;;18.02;48.76;102424.63;488954;28;901;-65
2021/04/17 00:07:31;;;;;;;3.88;2.10;;;;;;;18.01;48.19;102410.22;489183;28;978;-64
2021/04/17 00:07:45;;;;;;;7.17;2.20;;;;;;;18.02;48.42;102416.50;489378;28;1044;-64
2021/04/17 00:08:00;;;;;;;7.90;2.22;;;;;;;18.03;48.24;102416.34;489434;28;1202;-64
2021/04/17 00:08:14;;;;;;;4.83;2.40;;;;;;;18.03;48.31;102415.50;489187;28;1910;-64
2021/04/17 00:08:29;;;;;;;4.00;2.40;;;;;;;18.02;48.66;102420.06;489212;28;938;-65
2021/04/17 00:08:43;;;;;;;4.83;2.30;;;;;;;18.02;48.41;102416.50;489364;28;1055;-64
2021/04/17 00:08:59;;;;;;;5.55;2.30;;;;;;;18.02;48.43;102413.78;489175;28;929;-65
2021/04/17 00:09:18;;;;;;;5.85;2.00;;;;;;;18.02;48.17;102414.66;489351;28;908;-64
2021/04/17 00:09:33;;;;;;;4.80;2.03;;;;;;;18.01;48.34;102418.34;488647;28;19017;-64
2021/04/17 00:09:47;;;;;;;5.00;2.28;;;;;;;18.01;48.33;102410.22;489263;28;901;-64
2021/04/17 00:10:03;;;;;;;5.00;2.28;;;;;;;18.03;48.57;102418.22;489349;28;910;-65
2021/04/17 00:10:18;;;;;;;3.63;1.95;;;;;;;18.02;48.54;102413.78;489502;28;1025;-65
2021/04/17 00:10:32;;;;;;;3.45;1.92;;;;;;;18.01;48.55;102415.66;489010;28;933;-65
2021/04/17 00:10:47;;;;;;;4.22;2.10;;;;;;;18.01;48.80;102412.06;489379;28;948;-64
2021/04/17 00:11:02;;;;;;;4.27;2.03;;;;;;;18.02;48.79;102416.50;489349;28;904;-64
2021/04/17 00:11:17;;;;;;;4.43;2.10;;;;;;;18.01;48.39;102417.50;489059;28;1053;-64
2021/04/17 00:11:31;;;;;;;3.97;2.13;;;;;;;18.02;48.53;102414.66;487652;28;929;-64
2021/04/17 00:11:47;;;;;;;4.20;2.13;;;;;;;18.01;48.57;102415.66;487508;28;869;-65
2021/04/17 00:12:13;;;;;;;4.53;2.15;;;;;;;18.02;48.56;102421.91;487424;28;925;-64
2021/04/17 00:12:28;;;;;;;3.38;2.00;;;;;;;18.01;48.35;102418.34;485077;28;65237;-65
2021/04/17 00:12:42;;;;;;;4.30;2.03;;;;;;;18.01;48.31;102412.94;487447;28;982;-65
2021/04/17 00:12:57;;;;;;;4.03;2.10;;;;;;;18.02;48.22;102424.63;487448;28;901;-65
2021/04/17 00:13:12;;;;;;;3.60;2.30;;;;;;;18.02;48.49;102419.22;489018;28;950;-66
2021/04/17 00:13:27;;;;;;;4.00;2.35;;;;;;;18.01;48.76;102415.66;489193;28;856;-66
2021/04/17 00:13:42;;;;;;;4.15;2.15;;;;;;;18.02;48.69;102424.63;489368;28;878;-66
2021/04/17 00:13:56;;;;;;;4.20;2.10;;;;;;;18.02;48.56;102411.06;489201;28;1092;-66
2021/04/17 00:14:19;;;;;;;3.85;2.05;;;;;;;18.01;48.90;102414.78;489341;28;920;-66
2021/04/17 00:14:36;;;;;;;3.17;1.95;;;;;;;18.02;48.80;102417.34;486979;28;64265;-65
2021/04/17 00:14:51;;;;;;;4.20;2.20;;;;;;;18.01;48.82;102409.38;488697;28;2178;-66
2021/04/17 00:15:06;;;;;;;4.72;2.20;;;;;;;18.02;48.96;102413.78;489396;28;961;-66
2021/04/17 00:15:20;;;;;;;4.30;2.10;;;;;;;18.02;48.71;102406.50;489344;28;1148;-66
2021/04/17 00:15:35;;;;;;;4.70;2.10;;;;;;;18.02;48.75;102419.22;489011;28;890;-66
2021/04/17 00:15:49;;;;;;;3.88;2.00;;;;;;;18.01;48.89;102412.06;489465;28;921;-65
2021/04/17 00:16:04;;;;;;;3.27;1.97;;;;;;;18.02;48.53;102408.38;489378;28;871;-66
2021/04/17 00:16:19;;;;;;;3.38;2.10;;;;;;;18.01;48.71;102421.06;489198;28;787;-65
2021/04/17 00:16:33;;;;;;;3.97;2.13;;;;;;;18.02;48.70;102413.78;489198;28;799;-65
2021/04/17 00:16:49;;;;;;;4.57;2.20;;;;;;;18.02;48.58;102419.22;489277;28;959;-65
2021/04/17 00:17:05;;;;;;;4.03;2.30;;;;;;;18.01;48.74;102409.38;489367;28;972;-66
2021/04/17 00:17:20;;;;;;;3.58;2.40;;;;;;;18.01;48.56;102412.06;489383;28;954;-65
2021/04/17 00:17:34;;;;;;;3.47;2.20;;;;;;;18.01;48.80;102415.66;489258;28;938;-66
2021/04/17 00:17:49;;;;;;;3.75;2.05;;;;;;;18.01;48.46;102414.78;489458;28;838;-66
2021/04/17 00:18:04;;;;;;;3.90;2.13;;;;;;;18.01;48.65;102417.50;489078;28;890;-65
2021/04/17 00:18:18;;;;;;;4.55;2.30;;;;;;;18.02;48.61;102416.50;489459;28;883;-66
2021/04/17 00:18:33;;;;;;;5.27;2.43;;;;;;;18.02;48.72;102414.66;489182;28;1222;-66
2021/04/17 00:18:47;;;;;;;4.50;2.33;;;;;;;18.01;48.75;102418.34;489149;28;984;-66
2021/04/17 00:19:01;;;;;;;3.80;2.17;;;;;;;18.01;48.38;102415.66;489413;28;898;-66
2021/04/17 00:19:16;;;;;;;3.90;2.10;;;;;;;18.01;48.96;102414.78;489453;28;884;-65
2021/04/17 00:19:30;;;;;;;4.20;2.10;;;;;;;18.01;48.71;102412.06;489276;28;930;-66
2021/04/17 00:19:47;;;;;;;3.92;2.13;;;;;;;18.02;48.68;102416.50;489106;28;1085;-66
2021/04/17 00:20:04;;;;;;;3.53;2.13;;;;;;;18.00;48.50;102416.66;489398;28;902;-66
2021/04/17 00:20:18;;;;;;;4.05;2.10;;;;;;;18.00;48.47;102411.22;489057;28;963;-65
2021/04/17 00:20:32;;;;;;;3.63;2.05;;;;;;;18.00;48.54;102411.22;488642;28;878;-65
2021/04/17 00:20:48;;;;;;;2.40;1.90;;;;;;;18.02;48.72;102413.78;489305;28;870;-66
2021/04/17 00:21:04;;;;;;;3.67;2.10;;;;;;;18.02;48.83;102419.22;489108;28;1076;-65
2021/04/17 00:21:18;;;;;;;4.38;2.20;;;;;;;18.01;48.85;102415.66;488510;28;914;-66
2021/04/17 00:21:33;;;;;;;3.80;2.20;;;;;;;18.01;48.66;102420.22;488809;28;1384;-66
2021/04/17 00:21:47;;;;;;;3.78;2.20;;;;;;;18.01;48.67;102412.94;488887;28;929;-66
2021/04/17 00:22:03;;;;;;;3.63;2.10;;;;;;;18.01;48.51;102417.50;488632;28;870;-66
2021/04/17 00:22:18;;;;;;;4.13;2.20;;;;;;;18.02;48.77;102419.22;487114;28;870;-66
2021/04/17 00:22:32;;;;;;;3.97;2.20;;;;;;;18.01;48.61;102417.50;487140;28;918;-65
2021/04/17 00:22:47;;;;;;;2.87;2.10;;;;;;;18.01;48.79;102415.66;487284;28;942;-66
2021/04/17 00:23:01;;;;;;;4.23;2.00;;;;;;;18.00;48.71;102413.94;487278;28;895;-66
2021/04/17 00:23:16;;;;;;;4.55;2.08;;;;;;;18.01;48.79;102414.78;487285;28;1080;-66
2021/04/17 00:23:30;;;;;;;3.58;2.05;;;;;;;18.00;48.77;102416.66;487359;28;997;-66
2021/04/17 00:23:46;;;;;;;3.50;2.00;;;;;;;18.01;48.34;102421.06;487231;28;1358;-66
2021/04/17 00:24:01;;;;;;;3.90;2.08;;;;;;;18.01;48.79;102418.34;487112;28;984;-66
2021/04/17 00:24:15;;;;;;;3.63;2.05;;;;;;;18.00;48.63;102413.94;487342;28;850;-66
2021/04/17 00:24:30;;;;;;;2.77;1.83;;;;;;;17.99;48.64;102412.22;487227;28;918;-66
2021/04/17 00:24:44;;;;;;;3.92;1.98;;;;;;;18.00;48.73;102410.38;487218;28;942;-66
2021/04/17 00:24:58;;;;;;;4.93;2.20;;;;;;;18.01;48.48;102417.50;487226;28;855;-66
2021/04/17 00:25:13;;;;;;;4.23;2.10;;;;;;;17.99;48.59;102412.22;487268;28;903;-66
2021/04/17 00:25:28;;;;;;;3.35;2.10;;;;;;;17.98;48.51;102418.66;487313;28;885;-65
2021/04/17 00:25:43;;;;;;;3.33;2.13;;;;;;;18.00;48.74;102418.50;487264;28;854;-66
2021/04/17 00:25:57;;;;;;;4.10;2.33;;;;;;;18.00;48.49;102421.22;487362;28;1013;-66
2021/04/17 00:26:11;;;;;;;4.47;2.27;;;;;;;17.99;48.78;102414.06;487468;28;885;-66
2021/04/17 00:26:26;;;;;;;3.95;1.90;;;;;;;17.99;48.75;102414.06;487399;28;961;-66
2021/04/17 00:26:41;;;;;;;3.83;2.07;;;;;;;17.99;48.60;102411.38;487374;28;854;-65
2021/04/17 00:26:55;;;;;;;3.70;2.20;;;;;;;18.00;48.67;102418.50;487422;28;830;-66
2021/04/17 00:27:10;;;;;;;4.07;2.20;;;;;;;17.99;48.54;102420.34;489251;28;873;-66
2021/04/17 00:27:25;;;;;;;4.07;2.17;;;;;;;17.99;48.62;102414.94;489369;28;907;-65
2021/04/17 00:27:40;;;;;;;2.92;2.00;;;;;;;18.00;48.50;102421.22;489325;28;1033;-66
2021/04/17 00:27:54;;;;;;;3.30;2.00;;;;;;;18.00;48.81;102413.06;489155;28;850;-66
2021/04/17 00:28:09;;;;;;;3.83;2.10;;;;;;;17.99;48.58;102416.78;489396;28;858;-66
2021/04/17 00:28:23;;;;;;;4.25;2.00;;;;;;;17.99;48.66;102416.78;489282;28;1959;-66
2021/04/17 00:28:38;;;;;;;4.30;2.05;;;;;;;17.99;48.79;102416.78;489138;28;1000;-66
2021/04/17 00:28:52;;;;;;;3.43;2.00;;;;;;;17.98;48.69;102409.66;489265;28;997;-66
2021/04/17 00:29:08;;;;;;;3.10;2.00;;;;;;;17.98;48.74;102410.50;489421;28;969;-65
2021/04/17 00:29:23;;;;;;;4.05;2.05;;;;;;;17.99;48.71;102411.38;489376;28;1003;-65
2021/04/17 00:29:37;;;;;;;4.75;2.20;;;;;;;17.99;48.74;102414.94;488801;28;861;-66
2021/04/17 00:29:52;;;;;;;3.97;2.17;;;;;;;17.99;48.33;102419.50;489294;28;886;-66
2021/04/17 00:30:08;;;;;;;4.03;2.20;;;;;;;17.99;48.68;102414.06;489338;28;846;-66
2021/04/17 00:30:23;;;;;;;3.75;2.20;;;;;;;17.99;48.60;102417.66;489048;28;917;-65
2021/04/17 00:30:37;;;;;;;2.92;2.10;;;;;;;17.99;49.01;102417.66;489343;28;945;-66
2021/04/17 00:30:52;;;;;;;3.30;2.03;;;;;;;17.98;48.86;102418.66;489290;28;810;-66
2021/04/17 00:31:06;;;;;;;3.70;2.10;;;;;;;17.98;48.67;102418.66;489201;28;803;-66
2021/04/17 00:31:20;;;;;;;3.72;2.10;;;;;;;17.98;48.58;102421.34;488955;28;1035;-66
2021/04/17 00:31:37;;;;;;;3.37;2.00;;;;;;;17.99;48.64;102416.78;489353;28;1083;-66
2021/04/17 00:31:52;;;;;;;3.15;1.95;;;;;;;17.98;48.93;102417.78;489281;28;938;-66
2021/04/17 00:32:08;;;;;;;3.40;2.00;;;;;;;18.00;48.99;102415.78;487449;28;941;-66
2021/04/17 00:32:23;;;;;;;3.58;2.03;;;;;;;17.99;48.99;102414.06;487120;28;984;-66
2021/04/17 00:32:37;;;;;;;3.30;2.00;;;;;;;17.97;48.73;102413.41;487218;28;815;-66
2021/04/17 00:32:51;;;;;;;3.40;2.00;;;;;;;17.99;48.75;102416.78;487273;28;929;-65
2021/04/17 00:33:06;;;;;;;3.80;2.00;;;;;;;17.99;48.74;102412.22;487255;28;957;-65
2021/04/17 00:33:21;;;;;;;4.53;2.10;;;;;;;17.99;48.75;102420.34;487310;28;811;-66
2021/04/17 00:33:35;;;;;;;4.28;2.10;;;;;;;17.97;48.87;102416.09;487244;28;1011;-66
2021/04/17 00:33:50;;;;;;;4.33;2.10;;;;;;;17.99;49.11;102416.78;487192;28;1060;-66
2021/04/17 00:34:04;;;;;;;4.22;2.20;;;;;;;17.99;49.12;102416.78;487125;28;981;-66
2021/04/17 00:34:19;;;;;;;3.93;2.20;;;;;;;17.99;48.97;102414.94;487321;28;906;-66
2021/04/17 00:34:33;;;;;;;3.97;2.20;;;;;;;17.98;49.11;102418.66;487280;28;912;-66
2021/04/17 00:34:48;;;;;;;4.00;2.30;;;;;;;17.99;48.89;102414.94;487373;28;819;-65
2021/04/17 00:35:03;;;;;;;3.60;2.28;;;;;;;17.98;48.77;102415.06;487432;28;784;-66
2021/04/17 00:35:17;;;;;;;4.03;2.28;;;;;;;17.97;48.65;102418.81;487446;28;989;-66
2021/04/17 00:35:32;;;;;;;4.13;2.20;;;;;;;17.97;48.55;102419.66;487227;28;974;-66
2021/04/17 00:35:46;;;;;;;4.45;2.20;;;;;;;17.98;48.88;102417.78;487460;28;817;-66
2021/04/17 00:36:00;;;;;;;4.50;2.17;;;;;;;17.98;48.90;102415.94;487461;28;906;-66
2021/04/17 00:36:15;;;;;;;3.47;2.03;;;;;;;17.97;48.82;102416.94;487453;28;918;-66
2021/04/17 00:36:29;;;;;;;3.47;2.10;;;;;;;17.98;48.97;102415.94;487249;28;907;-66
2021/04/17 00:36:44;;;;;;;3.38;2.00;;;;;;;17.97;48.85;102418.81;487402;28;885;-66
2021/04/17 00:36:58;;;;;;;3.03;1.87;;;;;;;17.98;48.43;102412.38;486968;28;834;-66
2021/04/17 00:37:13;;;;;;;3.30;1.90;;;;;;;17.98;48.79;102417.78;487432;28;957;-66
2021/04/17 00:37:27;;;;;;;4.10;2.10;;;;;;;17.97;49.12;102414.22;487430;28;894;-66
2021/04/17 00:37:41;;;;;;;4.30;2.10;;;;;;;17.98;48.81;102417.78;487441;28;859;-66
2021/04/17 00:37:56;;;;;;;4.32;2.10;;;;;;;17.98;49.19;102415.94;487450;28;835;-66
2021/04/17 00:38:10;;;;;;;3.73;2.20;;;;;;;17.96;48.64;102415.25;487467;28;974;-66
2021/04/17 00:38:25;;;;;;;3.47;2.17;;;;;;;17.97;48.62;102416.09;487320;28;831;-66
2021/04/17 00:38:39;;;;;;;3.58;2.10;;;;;;;17.96;48.72;102409.84;489124;28;838;-66
2021/04/17 00:38:56;;;;;;;3.30;2.13;;;;;;;17.99;48.60;102414.06;489281;28;1342;-66
2021/04/17 00:39:11;;;;;;;4.05;2.33;;;;;;;17.98;48.98;102417.78;489362;28;962;-66
2021/04/17 00:39:25;;;;;;;3.92;2.33;;;;;;;17.98;48.86;102415.06;489201;28;863;-66
2021/04/17 00:39:40;;;;;;;3.17;2.20;;;;;;;17.98;48.93;102415.06;489360;28;921;-66
2021/04/17 00:39:54;;;;;;;3.40;2.10;;;;;;;17.98;48.77;102409.66;489265;28;842;-66
2021/04/17 00:40:09;;;;;;;3.45;2.10;;;;;;;17.97;48.69;102418.81;489162;28;878;-66
2021/04/17 00:40:23;;;;;;;4.20;2.00;;;;;;;17.95;48.86;102413.53;489306;28;901;-66
2021/04/17 00:40:38;;;;;;;4.50;2.10;;;;;;;17.97;49.05;102416.09;489196;28;965;-66
2021/04/17 00:40:52;;;;;;;3.63;2.15;;;;;;;17.98;48.79;102415.06;489279;28;996;-66
2021/04/17 00:41:07;;;;;;;3.40;2.03;;;;;;;17.98;48.59;102420.50;489105;28;1195;-66
2021/04/17 00:41:21;;;;;;;3.67;2.10;;;;;;;17.97;48.83;102413.41;488975;28;924;-66
2021/04/17 00:41:36;;;;;;;4.63;2.45;;;;;;;17.96;48.87;102409.84;489286;28;965;-66
2021/04/17 00:41:51;;;;;;;4.57;2.30;;;;;;;17.96;49.06;102415.25;488247;28;910;-66
2021/04/17 00:42:06;;;;;;;3.53;2.10;;;;;;;17.98;48.97;102415.06;487355;28;708;-65
2021/04/17 00:42:21;;;;;;;3.50;2.10;;;;;;;17.96;48.82;102417.09;487402;28;839;-65
2021/04/17 00:42:35;;;;;;;4.15;2.30;;;;;;;17.96;48.71;102414.41;487324;28;894;-66
2021/04/17 00:42:50;;;;;;;3.90;2.30;;;;;;;17.95;48.85;102418.97;487416;28;953;-65
2021/04/17 00:43:05;;;;;;;3.45;2.00;;;;;;;17.96;49.03;102417.09;487305;28;827;-66
2021/04/17 00:43:19;;;;;;;3.72;2.00;;;;;;;17.97;48.49;102421.53;487472;28;1029;-64
2021/04/17 00:43:34;;;;;;;5.77;2.17;;;;;;;17.97;48.64;102416.09;487454;28;795;-65
2021/04/17 00:43:48;;;;;;;5.65;2.40;;;;;;;17.95;48.68;102413.53;487423;28;846;-65
2021/04/17 00:44:04;;;;;;;4.03;2.23;;;;;;;17.96;48.65;102414.41;487374;28;787;-65
2021/04/17 00:44:18;;;;;;;4.03;2.10;;;;;;;17.96;48.49;102417.97;487097;28;969;-64
2021/04/17 00:44:34;;;;;;;3.73;2.20;;;;;;;17.96;48.91;102422.53;487215;28;854;-65
2021/04/17 00:44:49;;;;;;;3.70;2.17;;;;;;;17.96;48.99;102419.81;487221;28;912;-65
2021/04/17 00:45:07;;;;;;;4.70;2.20;;;;;;;17.95;48.93;102410.84;487416;28;974;-65
2021/04/17 00:45:21;;;;;;;4.88;2.33;;;;;;;17.94;48.97;102409.13;486659;28;20616;-64
2021/04/17 00:45:36;;;;;;;4.13;2.05;;;;;;;17.96;48.92;102422.53;487443;28;814;-64
2021/04/17 00:45:51;;;;;;;3.97;1.97;;;;;;;17.95;48.66;102420.81;487537;28;839;-64
2021/04/17 00:46:05;;;;;;;3.60;2.10;;;;;;;17.95;48.74;102418.09;487390;28;748;-64
2021/04/17 00:46:20;;;;;;;3.10;2.10;;;;;;;17.94;48.57;102419.97;487447;28;894;-64
2021/04/17 00:46:34;;;;;;;3.10;2.10;;;;;;;17.95;48.70;102420.81;487277;28;1167;-65
2021/04/17 00:46:49;;;;;;;3.60;2.20;;;;;;;17.94;48.70;102416.41;487400;28;1041;-65
2021/04/17 00:47:08;;;;;;;4.40;2.40;;;;;;;17.94;48.65;102419.97;487374;28;831;-65
2021/04/17 00:47:23;;;;;;;4.20;2.33;;;;;;;17.93;48.60;102415.53;485203;28;66114;-65
2021/04/17 00:47:37;;;;;;;4.20;2.10;;;;;;;17.92;48.55;102419.25;487431;28;830;-65
2021/04/17 00:47:52;;;;;;;4.30;2.20;;;;;;;17.93;48.81;102423.66;487366;28;926;-65
2021/04/17 00:48:06;;;;;;;3.80;2.20;;;;;;;17.93;48.95;102425.53;487366;28;887;-65
2021/04/17 00:48:21;;;;;;;3.60;2.08;;;;;;;17.93;49.00;102423.66;487374;28;1914;-65
2021/04/17 00:48:35;;;;;;;3.40;2.10;;;;;;;17.92;48.60;102411.13;487290;28;795;-65
2021/04/17 00:48:50;;;;;;;2.97;2.05;;;;;;;17.93;48.54;102425.53;487343;28;1001;-65
2021/04/17 00:49:07;;;;;;;2.95;2.03;;;;;;;17.92;48.80;102415.69;487273;28;811;-64
2021/04/17 00:49:21;;;;;;;3.55;2.20;;;;;;;17.93;48.74;102422.81;487434;28;957;-65
2021/04/17 00:49:36;;;;;;;3.40;2.13;;;;;;;17.93;48.58;102420.09;487422;28;815;-63
2021/04/17 00:49:50;;;;;;;3.38;2.17;;;;;;;17.92;48.95;102424.66;487409;28;863;-65
2021/04/17 00:50:06;;;;;;;3.50;2.27;;;;;;;17.93;48.79;102420.09;488550;28;815;-65
2021/04/17 00:50:20;;;;;;;3.75;2.25;;;;;;;17.93;48.74;102417.41;489353;28;1143;-65
2021/04/17 00:50:35;;;;;;;4.17;2.33;;;;;;;17.92;48.56;102416.53;489005;28;913;-65
2021/04/17 00:50:49;;;;;;;3.97;2.30;;;;;;;17.93;48.83;102418.25;489097;28;871;-65
2021/04/17 00:51:03;;;;;;;3.57;2.20;;;;;;;17.93;48.82;102417.41;489207;28;811;-65
2021/04/17 00:51:18;;;;;;;3.57;2.10;;;;;;;17.93;48.69;102415.53;489424;28;796;-65
2021/04/17 00:51:32;;;;;;;4.03;2.05;;;;;;;17.93;48.97;102417.41;488891;28;924;-65
2021/04/17 00:51:47;;;;;;;4.17;2.10;;;;;;;17.92;48.58;102423.81;487050;28;953;-65
2021/04/17 00:52:02;;;;;;;3.53;2.17;;;;;;;17.92;48.90;102419.25;487391;28;1212;-65
2021/04/17 00:52:16;;;;;;;3.40;2.00;;;;;;;17.92;48.96;102418.41;487368;28;1010;-65
2021/04/17 00:52:31;;;;;;;3.40;2.00;;;;;;;17.92;48.97;102415.69;487433;28;898;-64
2021/04/17 00:52:45;;;;;;;3.20;2.00;;;;;;;17.91;48.88;102417.53;487358;28;882;-65
2021/04/17 00:53:00;;;;;;;3.00;1.90;;;;;;;17.91;48.89;102420.25;487349;28;838;-65
2021/04/17 00:53:15;;;;;;;3.40;2.00;;;;;;;17.92;48.65;102424.66;487354;28;897;-65
2021/04/17 00:53:29;;;;;;;3.85;2.10;;;;;;;17.91;48.68;102422.09;487409;28;1100;-65
2021/04/17 00:53:44;;;;;;;3.80;2.07;;;;;;;17.92;48.76;102421.09;487399;28;882;-64
2021/04/17 00:53:58;;;;;;;3.13;2.00;;;;;;;17.92;48.48;102421.09;487419;28;910;-65
2021/04/17 00:54:13;;;;;;;3.73;2.10;;;;;;;17.92;48.75;102415.69;487367;28;882;-65
2021/04/17 00:54:27;;;;;;;3.75;2.10;;;;;;;17.90;48.50;102418.53;487350;28;953;-65
2021/04/17 00:54:42;;;;;;;3.87;2.00;;;;;;;17.91;48.83;102416.69;487348;28;910;-65
2021/04/17 00:54:56;;;;;;;4.20;2.25;;;;;;;17.91;48.80;102414.84;487470;28;965;-65
2021/04/17 00:55:11;;;;;;;3.43;2.33;;;;;;;17.91;48.50;102416.69;487214;28;911;-65
2021/04/17 00:55:25;;;;;;;3.53;2.13;;;;;;;17.89;48.72;102410.56;487456;28;834;-65
2021/04/17 00:55:40;;;;;;;4.22;2.10;;;;;;;17.90;48.81;102418.53;487404;28;894;-65
2021/04/17 00:55:54;;;;;;;4.07;2.10;;;;;;;17.90;48.46;102418.53;487422;28;813;-65
2021/04/17 00:56:10;;;;;;;3.30;2.05;;;;;;;17.91;48.56;102419.41;487326;28;990;-64
2021/04/17 00:56:25;;;;;;;3.15;2.10;;;;;;;17.91;48.47;102411.25;487400;28;917;-65
2021/04/17 00:56:39;;;;;;;3.63;2.10;;;;;;;17.91;48.58;102422.97;487466;28;810;-65
2021/04/17 00:56:54;;;;;;;4.03;2.15;;;;;;;17.90;48.75;102410.41;487365;28;771;-64
2021/04/17 00:57:08;;;;;;;4.07;2.30;;;;;;;17.92;48.67;102413.84;487351;28;866;-65
2021/04/17 00:57:23;;;;;;;3.60;2.40;;;;;;;17.92;48.91;102415.69;487412;28;978;-64
2021/04/17 00:57:37;;;;;;;3.33;2.17;;;;;;;17.91;48.68;102416.69;487436;28;850;-65
2021/04/17 00:57:52;;;;;;;3.35;2.10;;;;;;;17.92;48.93;102410.28;487443;28;842;-64
2021/04/17 00:58:06;;;;;;;3.80;2.33;;;;;;;17.92;48.87;102415.69;487357;28;957;-65
2021/04/17 00:58:21;;;;;;;4.13;2.40;;;;;;;17.91;48.72;102406.69;487428;28;854;-65
2021/04/17 00:58:39;;;;;;;3.90;2.22;;;;;;;17.91;48.61;102409.41;487325;28;788;-64
2021/04/17 00:58:54;;;;;;;3.92;2.10;;;;;;;17.92;49.28;102413.84;486755;28;18723;-64
2021/04/17 00:59:08;;;;;;;3.50;1.97;;;;;;;17.92;49.33;102407.56;487029;28;1036;-65
2021/04/17 00:59:22;;;;;;;2.97;1.95;;;;;;;17.91;48.95;102408.56;487276;28;840;-65
2021/04/17 00:59:37;;;;;;;3.53;2.07;;;;;;;17.92;49.34;102410.28;487415;28;834;-65
2021/04/17 00:59:51;;;;;;;3.78;2.00;;;;;;;17.90;48.77;102410.41;487491;28;989;-65
2021/04/17 01:00:07;;;;;;;3.47;1.90;;;;;;;17.91;49.06;102411.25;487334;28;973;-65
2021/04/17 01:00:22;;;;;;;4.03;2.08;;;;;;;17.91;48.99;102409.41;487066;28;1315;-65
2021/04/17 01:00:37;;;;;;;4.35;2.22;;;;;;;17.90;49.33;102410.41;487337;28;967;-65
2021/04/17 01:00:52;;;;;;;4.53;2.10;;;;;;;17.92;49.22;102411.13;487406;28;846;-65
2021/04/17 01:01:08;;;;;;;5.18;2.25;;;;;;;17.92;49.24;102407.56;487406;28;894;-65
2021/04/17 01:01:22;;;;;;;4.93;2.30;;;;;;;17.90;48.71;102407.69;487140;28;891;-64
2021/04/17 01:01:38;;;;;;;3.87;2.00;;;;;;;17.92;48.85;102415.69;487520;28;1110;-65
2021/04/17 01:01:52;;;;;;;5.30;2.00;;;;;;;17.91;48.85;102409.41;487352;28;1076;-64
2021/04/17 01:02:07;;;;;;;4.93;2.00;;;;;;;17.92;49.04;102410.28;487328;28;932;-64
2021/04/17 01:02:27;;;;;;;4.10;1.83;;;;;;;17.90;48.68;102407.69;487389;28;876;-64
2021/04/17 01:02:52;;;;;;;5.18;1.95;;;;;;;17.93;49.30;102407.41;485164;28;65922;-64
2021/04/17 01:03:20;;;;;;;4.60;2.33;;;;;;;17.92;49.08;102408.41;485181;28;65016;-64
2021/04/17 01:03:40;;;;;;;5.47;2.20;;;;;;;17.92;49.04;102403.00;485056;28;64975;-64
2021/04/17 01:04:15;;;;;;;7.10;2.40;;;;;;;17.91;49.22;102404.00;485176;28;65469;-64
2021/04/17 01:04:45;;;;;;;2.90;2.10;;;;;;;17.92;49.20;102403.00;484942;28;67208;-64
2021/04/17 01:05:05;;;;;;;4.45;2.03;;;;;;;17.93;49.07;102407.41;484890;28;64829;-64
2021/04/17 01:05:20;;;;;;;5.00;2.10;;;;;;;17.93;49.17;102407.41;484873;28;66464;-64
2021/04/17 01:05:38;;;;;;;4.20;2.10;;;;;;;17.93;49.20;102403.84;486678;28;1113;-64
2021/04/17 01:05:59;;;;;;;4.05;2.00;;;;;;;17.92;49.38;102407.56;486555;28;18633;-64
2021/04/17 01:06:24;;;;;;;3.83;2.20;;;;;;;17.93;49.68;102401.13;484944;28;65428;-64
2021/04/17 01:06:42;;;;;;;4.00;2.15;;;;;;;17.93;49.12;102409.28;484562;28;66332;-64
2021/04/17 01:07:20;;;;;;;4.18;2.30;;;;;;;17.94;49.38;102408.28;486674;28;19579;-64
2021/04/17 01:07:49;;;;;;;3.20;2.00;;;;;;;17.93;49.33;102410.13;485011;28;66123;-64
2021/04/17 01:08:08;;;;;;;3.80;2.20;;;;;;;17.93;49.30;102406.56;485135;28;66077;-64
2021/04/17 01:08:34;;;;;;;3.03;2.10;;;;;;;17.94;49.02;102402.84;485773;28;42434;-64
2021/04/17 01:09:03;;;;;;;3.90;2.10;;;;;;;17.94;48.96;102400.13;485059;28;67603;-64
2021/04/17 01:09:31;;;;;;;4.20;1.98;;;;;;;17.93;49.42;102407.41;485046;28;66579;-63
2021/04/17 01:09:49;;;;;;;2.97;2.00;;;;;;;17.93;49.26;102404.72;484633;28;80464;-64
2021/04/17 01:10:32;;;;;;;3.03;2.13;;;;;;;17.93;48.96;102403.84;486637;28;20691;-64
2021/04/17 01:10:54;;;;;;;4.13;2.25;;;;;;;17.93;49.12;102409.28;485100;28;66619;-64
2021/04/17 01:11:16;;;;;;;3.83;2.30;;;;;;;17.93;49.15;102403.84;485100;28;65417;-64
2021/04/17 01:11:54;;;;;;;4.18;2.20;;;;;;;17.93;48.99;102401.13;486500;28;66691;-64
2021/04/17 01:12:14;;;;;;;4.40;2.10;;;;;;;17.92;49.21;102408.41;486580;28;65846;-64
2021/04/17 01:12:32;;;;;;;7.95;2.50;;;;;;;17.92;49.56;102408.41;484892;28;66444;-63
2021/04/17 01:12:52;;;;;;;3.50;2.03;;;;;;;17.92;49.00;102407.56;486689;28;20519;-64
2021/04/17 01:13:09;;;;;;;2.95;1.92;;;;;;;17.93;49.20;102401.13;485168;28;66818;-64
2021/04/17 01:13:25;;;;;;;3.17;2.00;;;;;;;17.92;48.92;102403.00;486692;28;19381;-64
2021/04/17 01:13:42;;;;;;;3.78;2.00;;;;;;;17.91;48.81;102400.44;487359;28;955;-64
2021/04/17 01:13:57;;;;;;;4.00;2.20;;;;;;;17.91;48.89;102406.69;486957;28;862;-64
2021/04/17 01:14:14;;;;;;;3.33;2.10;;;;;;;17.91;49.26;102409.41;487324;28;875;-64
2021/04/17 01:14:31;;;;;;;3.13;1.92;;;;;;;17.90;48.86;102402.28;486570;28;19532;-64
2021/04/17 01:14:48;;;;;;;3.83;2.20;;;;;;;17.92;49.29;102404.84;487407;28;1020;-64
2021/04/17 01:15:05;;;;;;;3.70;2.30;;;;;;;17.91;48.96;102412.13;487355;28;901;-64
2021/04/17 01:15:21;;;;;;;3.22;2.25;;;;;;;17.91;49.05;102405.84;487326;28;1233;-64
2021/04/17 01:15:36;;;;;;;3.30;2.28;;;;;;;17.92;49.22;102407.56;487375;28;921;-64
2021/04/17 01:15:51;;;;;;;3.65;2.15;;;;;;;17.91;49.34;102403.13;487335;28;905;-64
2021/04/17 01:16:06;;;;;;;3.53;2.15;;;;;;;17.91;49.32;102406.69;487324;28;845;-64